sensor_id;sensor_type;location;lat;lon;timestamp;P1;durP1;ratioP1;P2;durP2;ratioP2
37891;SDS011;45797;47.466;9.486;2023-03-31T00:00:07;5.65;;;3.20;;
37891;SDS011;45797;47.466;9.486;2023-03-31T00:05:11;5.88;;;3.15;;
37891;SDS011;45797;47.466;9.486;2023-03-31T00:10:16;7.93;;;3.47;;
37891;SDS011;45797;47.466;9.486;2023-03-31T00:15:19;8.18;;;2.83;;
37891;SDS011;45797;47.466;9.486;2023-03-31T00:20:20;8.07;;;2.78;;
37891;SDS011;45797;47.466;9.486;2023-03-31T00:25:21;6.82;;;2.78;;
37891;SDS011;45797;47.466;9.486;2023-03-31T00:30:29;6.50;;;2.97;;
37891;SDS011;45797;47.466;9.486;2023-03-31T00:35:36;5.80;;;2.50;;
37891;SDS011;45797;47.466;9.486;2023-03-31T00:40:47;5.88;;;2.60;;
37891;SDS011;45797;47.466;9.486;2023-03-31T00:45:54;7.38;;;2.95;;
37891;SDS011;45797;47.466;9.486;2023-03-31T00:51:12;4.65;;;2.30;;
37891;SDS011;45797;47.466;9.486;2023-03-31T00:56:25;7.70;;;2.40;;
37891;SDS011;45797;47.466;9.486;2023-03-31T01:01:31;4.95;;;2.40;;
37891;SDS011;45797;47.466;9.486;2023-03-31T01:06:37;5.38;;;2.28;;
37891;SDS011;45797;47.466;9.486;2023-03-31T01:11:47;6.18;;;2.55;;
37891;SDS011;45797;47.466;9.486;2023-03-31T01:16:59;8.00;;;2.60;;
37891;SDS011;45797;47.466;9.486;2023-03-31T01:55:05;4.85;;;2.58;;
37891;SDS011;45797;47.466;9.486;2023-03-31T02:00:11;9.65;;;2.80;;
37891;SDS011;45797;47.466;9.486;2023-03-31T02:05:25;7.93;;;2.50;;
37891;SDS011;45797;47.466;9.486;2023-03-31T02:15:38;8.07;;;2.78;;
37891;SDS011;45797;47.466;9.486;2023-03-31T02:20:47;7.35;;;2.88;;
37891;SDS011;45797;47.466;9.486;2023-03-31T02:25:52;5.10;;;3.20;;
37891;SDS011;45797;47.466;9.486;2023-03-31T02:36:15;5.07;;;2.80;;
37891;SDS011;45797;47.466;9.486;2023-03-31T02:46:21;7.88;;;2.92;;
37891;SDS011;45797;47.466;9.486;2023-03-31T03:02:17;6.60;;;3.08;;
37891;SDS011;45797;47.466;9.486;2023-03-31T03:07:45;4.93;;;2.75;;
37891;SDS011;45797;47.466;9.486;2023-03-31T03:19:04;5.32;;;2.47;;
37891;SDS011;45797;47.466;9.486;2023-03-31T03:24:06;5.45;;;2.45;;
37891;SDS011;45797;47.466;9.486;2023-03-31T03:29:06;4.13;;;2.22;;
37891;SDS011;45797;47.466;9.486;2023-03-31T03:34:17;5.10;;;2.42;;
37891;SDS011;45797;47.466;9.486;2023-03-31T03:39:19;6.00;;;2.60;;
37891;SDS011;45797;47.466;9.486;2023-03-31T03:44:20;4.63;;;2.30;;
37891;SDS011;45797;47.466;9.486;2023-03-31T03:49:21;5.15;;;2.70;;
37891;SDS011;45797;47.466;9.486;2023-03-31T03:54:22;4.13;;;2.38;;
37891;SDS011;45797;47.466;9.486;2023-03-31T03:59:24;4.47;;;2.70;;
37891;SDS011;45797;47.466;9.486;2023-03-31T04:04:26;6.68;;;2.88;;
37891;SDS011;45797;47.466;9.486;2023-03-31T04:09:40;6.35;;;2.50;;
37891;SDS011;45797;47.466;9.486;2023-03-31T04:19:47;3.92;;;1.77;;
37891;SDS011;45797;47.466;9.486;2023-03-31T04:24:51;5.00;;;1.90;;
37891;SDS011;45797;47.466;9.486;2023-03-31T04:29:57;5.38;;;2.10;;
37891;SDS011;45797;47.466;9.486;2023-03-31T04:34:57;4.03;;;1.52;;
37891;SDS011;45797;47.466;9.486;2023-03-31T04:40:02;6.97;;;2.25;;
37891;SDS011;45797;47.466;9.486;2023-03-31T04:45:06;4.97;;;2.70;;
37891;SDS011;45797;47.466;9.486;2023-03-31T04:50:08;3.53;;;1.98;;
37891;SDS011;45797;47.466;9.486;2023-03-31T04:55:23;5.47;;;2.40;;
37891;SDS011;45797;47.466;9.486;2023-03-31T05:00:23;7.47;;;2.60;;
37891;SDS011;45797;47.466;9.486;2023-03-31T05:05:24;6.30;;;2.40;;
37891;SDS011;45797;47.466;9.486;2023-03-31T05:10:25;6.97;;;2.30;;
37891;SDS011;45797;47.466;9.486;2023-03-31T05:20:31;4.60;;;2.00;;
37891;SDS011;45797;47.466;9.486;2023-03-31T05:25:31;4.95;;;2.10;;
37891;SDS011;45797;47.466;9.486;2023-03-31T05:30:33;4.95;;;2.40;;
37891;SDS011;45797;47.466;9.486;2023-03-31T05:35:34;5.32;;;2.38;;
37891;SDS011;45797;47.466;9.486;2023-03-31T05:40:35;3.90;;;2.03;;
37891;SDS011;45797;47.466;9.486;2023-03-31T05:45:47;5.47;;;2.53;;
37891;SDS011;45797;47.466;9.486;2023-03-31T05:50:47;7.57;;;2.38;;
37891;SDS011;45797;47.466;9.486;2023-03-31T05:55:48;6.07;;;2.92;;
37891;SDS011;45797;47.466;9.486;2023-03-31T06:06:04;5.95;;;2.30;;
37891;SDS011;45797;47.466;9.486;2023-03-31T06:11:10;4.25;;;2.08;;
37891;SDS011;45797;47.466;9.486;2023-03-31T06:16:13;13.32;;;3.60;;
37891;SDS011;45797;47.466;9.486;2023-03-31T06:21:15;6.50;;;2.50;;
37891;SDS011;45797;47.466;9.486;2023-03-31T06:26:16;8.18;;;2.40;;
37891;SDS011;45797;47.466;9.486;2023-03-31T06:36:23;5.25;;;2.47;;
37891;SDS011;45797;47.466;9.486;2023-03-31T06:41:36;8.98;;;3.00;;
37891;SDS011;45797;47.466;9.486;2023-03-31T06:46:38;6.30;;;2.40;;
37891;SDS011;45797;47.466;9.486;2023-03-31T06:51:50;3.72;;;2.10;;
37891;SDS011;45797;47.466;9.486;2023-03-31T06:56:52;6.25;;;2.30;;
37891;SDS011;45797;47.466;9.486;2023-03-31T07:01:54;7.20;;;2.28;;
37891;SDS011;45797;47.466;9.486;2023-03-31T07:06:56;7.50;;;1.98;;
37891;SDS011;45797;47.466;9.486;2023-03-31T07:11:58;3.42;;;1.88;;
37891;SDS011;45797;47.466;9.486;2023-03-31T07:17:00;3.28;;;1.60;;
37891;SDS011;45797;47.466;9.486;2023-03-31T07:22:01;3.83;;;1.80;;
37891;SDS011;45797;47.466;9.486;2023-03-31T07:27:01;4.70;;;2.17;;
37891;SDS011;45797;47.466;9.486;2023-03-31T07:32:03;6.32;;;2.00;;
37891;SDS011;45797;47.466;9.486;2023-03-31T07:37:18;5.07;;;2.28;;
37891;SDS011;45797;47.466;9.486;2023-03-31T07:42:20;3.78;;;2.15;;
37891;SDS011;45797;47.466;9.486;2023-03-31T07:47:31;5.68;;;2.03;;
37891;SDS011;45797;47.466;9.486;2023-03-31T07:52:32;4.75;;;2.15;;
37891;SDS011;45797;47.466;9.486;2023-03-31T07:57:35;6.97;;;2.70;;
37891;SDS011;45797;47.466;9.486;2023-03-31T08:07:48;7.95;;;2.65;;
37891;SDS011;45797;47.466;9.486;2023-03-31T08:12:50;6.38;;;2.53;;
37891;SDS011;45797;47.466;9.486;2023-03-31T08:17:57;7.63;;;2.50;;
37891;SDS011;45797;47.466;9.486;2023-03-31T08:22:59;5.43;;;2.60;;
37891;SDS011;45797;47.466;9.486;2023-03-31T08:27:59;4.55;;;2.60;;
37891;SDS011;45797;47.466;9.486;2023-03-31T08:32:59;5.95;;;2.40;;
37891;SDS011;45797;47.466;9.486;2023-03-31T08:38:01;6.72;;;3.00;;
37891;SDS011;45797;47.466;9.486;2023-03-31T08:43:25;7.70;;;3.00;;
37891;SDS011;45797;47.466;9.486;2023-03-31T08:48:33;7.70;;;3.60;;
37891;SDS011;45797;47.466;9.486;2023-03-31T08:53:45;6.95;;;2.50;;
37891;SDS011;45797;47.466;9.486;2023-03-31T08:58:53;7.07;;;2.83;;
37891;SDS011;45797;47.466;9.486;2023-03-31T09:14:59;6.63;;;2.75;;
37891;SDS011;45797;47.466;9.486;2023-03-31T09:20:06;4.20;;;2.38;;
37891;SDS011;45797;47.466;9.486;2023-03-31T09:25:22;4.60;;;2.17;;
37891;SDS011;45797;47.466;9.486;2023-03-31T09:30:32;3.50;;;1.80;;
37891;SDS011;45797;47.466;9.486;2023-03-31T09:35:44;4.82;;;1.83;;
37891;SDS011;45797;47.466;9.486;2023-03-31T09:40:46;5.53;;;2.30;;
37891;SDS011;45797;47.466;9.486;2023-03-31T09:46:03;3.58;;;2.20;;
37891;SDS011;45797;47.466;9.486;2023-03-31T09:51:15;4.25;;;1.83;;
37891;SDS011;45797;47.466;9.486;2023-03-31T09:56:34;3.80;;;1.85;;
37891;SDS011;45797;47.466;9.486;2023-03-31T10:01:46;3.92;;;2.08;;
37891;SDS011;45797;47.466;9.486;2023-03-31T10:06:53;4.15;;;1.92;;
37891;SDS011;45797;47.466;9.486;2023-03-31T10:17:21;4.45;;;1.77;;
37891;SDS011;45797;47.466;9.486;2023-03-31T10:27:28;3.60;;;1.65;;
37891;SDS011;45797;47.466;9.486;2023-03-31T10:32:31;3.95;;;1.80;;
37891;SDS011;45797;47.466;9.486;2023-03-31T10:37:35;3.58;;;1.80;;
37891;SDS011;45797;47.466;9.486;2023-03-31T10:42:36;5.57;;;1.88;;
37891;SDS011;45797;47.466;9.486;2023-03-31T10:47:37;4.85;;;2.08;;
37891;SDS011;45797;47.466;9.486;2023-03-31T10:52:46;5.60;;;2.60;;
37891;SDS011;45797;47.466;9.486;2023-03-31T10:57:57;6.18;;;2.35;;
37891;SDS011;45797;47.466;9.486;2023-03-31T11:41:14;2.78;;;1.45;;
37891;SDS011;45797;47.466;9.486;2023-03-31T11:46:26;4.78;;;1.38;;
37891;SDS011;45797;47.466;9.486;2023-03-31T11:51:39;1.73;;;0.88;;
37891;SDS011;45797;47.466;9.486;2023-03-31T11:56:42;1.75;;;0.80;;
37891;SDS011;45797;47.466;9.486;2023-03-31T12:07:03;4.05;;;1.00;;
37891;SDS011;45797;47.466;9.486;2023-03-31T12:12:28;5.43;;;1.45;;
37891;SDS011;45797;47.466;9.486;2023-03-31T12:17:31;5.47;;;1.58;;
37891;SDS011;45797;47.466;9.486;2023-03-31T12:22:36;3.72;;;1.67;;
37891;SDS011;45797;47.466;9.486;2023-03-31T12:32:57;3.65;;;1.70;;
37891;SDS011;45797;47.466;9.486;2023-03-31T13:00:36;3.17;;;1.35;;
37891;SDS011;45797;47.466;9.486;2023-03-31T13:15:57;4.55;;;1.33;;
37891;SDS011;45797;47.466;9.486;2023-03-31T13:21:06;5.88;;;1.00;;
37891;SDS011;45797;47.466;9.486;2023-03-31T13:31:59;3.15;;;0.93;;
37891;SDS011;45797;47.466;9.486;2023-03-31T14:36:47;0.68;;;0.40;;
37891;SDS011;45797;47.466;9.486;2023-03-31T14:41:58;1.60;;;0.60;;
37891;SDS011;45797;47.466;9.486;2023-03-31T14:47:20;2.17;;;0.60;;
37891;SDS011;45797;47.466;9.486;2023-03-31T14:52:30;0.90;;;0.40;;
37891;SDS011;45797;47.466;9.486;2023-03-31T15:02:42;0.70;;;0.30;;
37891;SDS011;45797;47.466;9.486;2023-03-31T15:07:45;0.55;;;0.35;;
37891;SDS011;45797;47.466;9.486;2023-03-31T15:17:56;2.50;;;0.60;;
37891;SDS011;45797;47.466;9.486;2023-03-31T15:22:56;3.05;;;0.52;;
37891;SDS011;45797;47.466;9.486;2023-03-31T15:28:04;1.20;;;0.40;;
37891;SDS011;45797;47.466;9.486;2023-03-31T15:33:32;4.57;;;0.70;;
37891;SDS011;45797;47.466;9.486;2023-03-31T15:38:40;0.52;;;0.30;;
37891;SDS011;45797;47.466;9.486;2023-03-31T15:49:29;1.70;;;0.50;;
37891;SDS011;45797;47.466;9.486;2023-03-31T15:54:43;0.93;;;0.40;;
37891;SDS011;45797;47.466;9.486;2023-03-31T15:59:54;0.25;;;0.22;;
37891;SDS011;45797;47.466;9.486;2023-03-31T16:04:57;0.38;;;0.30;;
37891;SDS011;45797;47.466;9.486;2023-03-31T16:15:17;1.63;;;0.50;;
37891;SDS011;45797;47.466;9.486;2023-03-31T16:20:35;2.03;;;0.60;;
37891;SDS011;45797;47.466;9.486;2023-03-31T16:25:40;1.75;;;0.60;;
37891;SDS011;45797;47.466;9.486;2023-03-31T16:30:42;0.73;;;0.40;;
37891;SDS011;45797;47.466;9.486;2023-03-31T16:35:46;1.80;;;0.50;;
37891;SDS011;45797;47.466;9.486;2023-03-31T16:40:59;2.50;;;0.60;;
37891;SDS011;45797;47.466;9.486;2023-03-31T16:46:02;1.50;;;0.70;;
37891;SDS011;45797;47.466;9.486;2023-03-31T16:56:09;2.25;;;0.47;;
37891;SDS011;45797;47.466;9.486;2023-03-31T17:01:22;1.20;;;0.57;;
37891;SDS011;45797;47.466;9.486;2023-03-31T17:11:41;1.02;;;0.40;;
37891;SDS011;45797;47.466;9.486;2023-03-31T17:16:41;1.45;;;0.40;;
37891;SDS011;45797;47.466;9.486;2023-03-31T17:26:44;0.85;;;0.45;;
37891;SDS011;45797;47.466;9.486;2023-03-31T17:31:46;1.00;;;0.57;;
37891;SDS011;45797;47.466;9.486;2023-03-31T17:36:47;3.10;;;0.57;;
37891;SDS011;45797;47.466;9.486;2023-03-31T17:46:52;1.05;;;0.50;;
37891;SDS011;45797;47.466;9.486;2023-03-31T17:51:59;1.10;;;0.40;;
37891;SDS011;45797;47.466;9.486;2023-03-31T17:56:59;2.35;;;0.60;;
37891;SDS011;45797;47.466;9.486;2023-03-31T18:07:05;1.98;;;0.88;;
37891;SDS011;45797;47.466;9.486;2023-03-31T18:12:07;0.90;;;0.50;;
37891;SDS011;45797;47.466;9.486;2023-03-31T18:17:10;2.17;;;0.60;;
37891;SDS011;45797;47.466;9.486;2023-03-31T18:22:14;0.90;;;0.50;;
37891;SDS011;45797;47.466;9.486;2023-03-31T18:27:22;1.45;;;0.60;;
37891;SDS011;45797;47.466;9.486;2023-03-31T18:32:22;1.20;;;0.63;;
37891;SDS011;45797;47.466;9.486;2023-03-31T18:37:23;1.52;;;0.50;;
37891;SDS011;45797;47.466;9.486;2023-03-31T18:42:25;1.05;;;0.40;;
37891;SDS011;45797;47.466;9.486;2023-03-31T18:52:28;4.55;;;0.70;;
37891;SDS011;45797;47.466;9.486;2023-03-31T18:57:28;0.73;;;0.45;;
37891;SDS011;45797;47.466;9.486;2023-03-31T19:02:29;1.55;;;0.52;;
37891;SDS011;45797;47.466;9.486;2023-03-31T19:07:30;1.38;;;0.60;;
37891;SDS011;45797;47.466;9.486;2023-03-31T19:12:37;1.42;;;0.68;;
37891;SDS011;45797;47.466;9.486;2023-03-31T19:22:44;1.65;;;0.50;;
37891;SDS011;45797;47.466;9.486;2023-03-31T19:27:46;1.10;;;0.50;;
37891;SDS011;45797;47.466;9.486;2023-03-31T19:32:47;2.25;;;0.40;;
37891;SDS011;45797;47.466;9.486;2023-03-31T19:37:49;1.70;;;0.68;;
37891;SDS011;45797;47.466;9.486;2023-03-31T19:42:51;2.97;;;0.60;;
37891;SDS011;45797;47.466;9.486;2023-03-31T19:52:57;0.70;;;0.40;;
37891;SDS011;45797;47.466;9.486;2023-03-31T19:57:58;0.38;;;0.38;;
37891;SDS011;45797;47.466;9.486;2023-03-31T20:03:00;0.30;;;0.30;;
37891;SDS011;45797;47.466;9.486;2023-03-31T20:08:01;0.40;;;0.40;;
37891;SDS011;45797;47.466;9.486;2023-03-31T20:18:26;0.90;;;0.55;;
37891;SDS011;45797;47.466;9.486;2023-03-31T20:23:26;0.45;;;0.30;;
37891;SDS011;45797;47.466;9.486;2023-03-31T20:28:31;0.40;;;0.30;;
37891;SDS011;45797;47.466;9.486;2023-03-31T20:33:32;0.30;;;0.30;;
37891;SDS011;45797;47.466;9.486;2023-03-31T20:38:37;0.55;;;0.40;;
37891;SDS011;45797;47.466;9.486;2023-03-31T20:43:39;0.88;;;0.43;;
37891;SDS011;45797;47.466;9.486;2023-03-31T20:48:41;0.60;;;0.50;;
37891;SDS011;45797;47.466;9.486;2023-03-31T20:53:48;0.40;;;0.40;;
37891;SDS011;45797;47.466;9.486;2023-03-31T20:59:01;2.15;;;0.50;;
37891;SDS011;45797;47.466;9.486;2023-03-31T21:04:04;0.65;;;0.40;;
37891;SDS011;45797;47.466;9.486;2023-03-31T21:09:08;0.40;;;0.40;;
37891;SDS011;45797;47.466;9.486;2023-03-31T21:14:12;0.60;;;0.32;;
37891;SDS011;45797;47.466;9.486;2023-03-31T21:19:13;0.40;;;0.32;;
37891;SDS011;45797;47.466;9.486;2023-03-31T21:24:16;0.70;;;0.40;;
37891;SDS011;45797;47.466;9.486;2023-03-31T21:29:18;0.88;;;0.32;;
37891;SDS011;45797;47.466;9.486;2023-03-31T21:34:18;0.38;;;0.32;;
37891;SDS011;45797;47.466;9.486;2023-03-31T21:39:18;1.75;;;0.32;;
37891;SDS011;45797;47.466;9.486;2023-03-31T21:44:25;0.30;;;0.30;;
37891;SDS011;45797;47.466;9.486;2023-03-31T21:49:27;1.85;;;0.55;;
37891;SDS011;45797;47.466;9.486;2023-03-31T21:54:33;2.17;;;0.45;;
37891;SDS011;45797;47.466;9.486;2023-03-31T22:04:39;2.05;;;0.50;;
37891;SDS011;45797;47.466;9.486;2023-03-31T22:09:40;1.73;;;0.52;;
37891;SDS011;45797;47.466;9.486;2023-03-31T22:14:40;0.52;;;0.40;;
37891;SDS011;45797;47.466;9.486;2023-03-31T22:24:46;0.85;;;0.43;;
37891;SDS011;45797;47.466;9.486;2023-03-31T22:29:47;1.58;;;0.50;;
37891;SDS011;45797;47.466;9.486;2023-03-31T22:34:48;1.73;;;0.50;;
37891;SDS011;45797;47.466;9.486;2023-03-31T22:39:55;0.55;;;0.40;;
37891;SDS011;45797;47.466;9.486;2023-03-31T22:44:56;1.50;;;0.50;;
37891;SDS011;45797;47.466;9.486;2023-03-31T22:49:58;0.38;;;0.28;;
37891;SDS011;45797;47.466;9.486;2023-03-31T22:55:14;0.68;;;0.47;;
37891;SDS011;45797;47.466;9.486;2023-03-31T23:00:15;2.40;;;0.60;;
37891;SDS011;45797;47.466;9.486;2023-03-31T23:05:17;1.08;;;0.40;;
37891;SDS011;45797;47.466;9.486;2023-03-31T23:10:19;0.38;;;0.30;;
37891;SDS011;45797;47.466;9.486;2023-03-31T23:15:21;0.88;;;0.43;;
37891;SDS011;45797;47.466;9.486;2023-03-31T23:20:23;0.30;;;0.30;;
37891;SDS011;45797;47.466;9.486;2023-03-31T23:25:25;2.17;;;0.40;;
37891;SDS011;45797;47.466;9.486;2023-03-31T23:30:25;0.63;;;0.40;;
37891;SDS011;45797;47.466;9.486;2023-03-31T23:35:35;0.60;;;0.32;;
37891;SDS011;45797;47.466;9.486;2023-03-31T23:40:35;0.30;;;0.30;;
37891;SDS011;45797;47.466;9.486;2023-03-31T23:45:45;0.40;;;0.40;;
37891;SDS011;45797;47.466;9.486;2023-03-31T23:55:51;0.50;;;0.40;;
